sensor_id;sensor_type;location;lat;lon;timestamp;pressure;altitude;pressure_sealevel;temperature;humidity
8069;BME280;4077;43.702;24.896;2023-01-31T00:01:14;98964.59;;;1.15;100.00
8069;BME280;4077;43.702;24.896;2023-01-31T00:03:40;98966.16;;;1.12;100.00
8069;BME280;4077;43.702;24.896;2023-01-31T00:06:15;98969.97;;;1.23;100.00
8069;BME280;4077;43.702;24.896;2023-01-31T00:08:42;98962.91;;;1.16;100.00
8069;BME280;4077;43.702;24.896;2023-01-31T00:11:08;98951.88;;;0.94;100.00
8069;BME280;4077;43.702;24.896;2023-01-31T00:13:34;98972.72;;;1.06;100.00
8069;BME280;4077;43.702;24.896;2023-01-31T00:16:00;98964.19;;;1.04;100.00
8069;BME280;4077;43.702;24.896;2023-01-31T00:18:25;98986.78;;;1.19;100.00
8069;BME280;4077;43.702;24.896;2023-01-31T00:20:51;98989.75;;;1.09;100.00
8069;BME280;4077;43.702;24.896;2023-01-31T00:23:16;98978.88;;;1.12;100.00
8069;BME280;4077;43.702;24.896;2023-01-31T00:25:42;98968.94;;;1.18;100.00
8069;BME280;4077;43.702;24.896;2023-01-31T00:28:07;98971.50;;;1.18;100.00
8069;BME280;4077;43.702;24.896;2023-01-31T00:30:33;98978.00;;;1.32;100.00
8069;BME280;4077;43.702;24.896;2023-01-31T00:32:59;98976.94;;;1.27;100.00
8069;BME280;4077;43.702;24.896;2023-01-31T00:35:24;98978.66;;;1.28;100.00
8069;BME280;4077;43.702;24.896;2023-01-31T00:37:50;98979.47;;;1.27;100.00
8069;BME280;4077;43.702;24.896;2023-01-31T00:40:16;98993.72;;;1.44;100.00
8069;BME280;4077;43.702;24.896;2023-01-31T00:42:41;98987.69;;;1.42;100.00
8069;BME280;4077;43.702;24.896;2023-01-31T00:45:08;98980.88;;;1.41;100.00
8069;BME280;4077;43.702;24.896;2023-01-31T00:47:33;98968.06;;;1.38;100.00
8069;BME280;4077;43.702;24.896;2023-01-31T00:49:59;98987.69;;;1.42;100.00
8069;BME280;4077;43.702;24.896;2023-01-31T00:52:25;98955.34;;;1.38;100.00
8069;BME280;4077;43.702;24.896;2023-01-31T00:54:50;98970.72;;;1.41;100.00
8069;BME280;4077;43.702;24.896;2023-01-31T00:57:15;98978.38;;;1.43;100.00
8069;BME280;4077;43.702;24.896;2023-01-31T00:59:41;98981.75;;;1.42;100.00
8069;BME280;4077;43.702;24.896;2023-01-31T01:02:06;98985.97;;;1.41;100.00
8069;BME280;4077;43.702;24.896;2023-01-31T01:04:32;98984.44;;;1.45;100.00
8069;BME280;4077;43.702;24.896;2023-01-31T01:06:57;98972.44;;;1.42;100.00
8069;BME280;4077;43.702;24.896;2023-01-31T01:09:23;98977.19;;;1.55;100.00
8069;BME280;4077;43.702;24.896;2023-01-31T01:11:50;98986.56;;;1.56;100.00
8069;BME280;4077;43.702;24.896;2023-01-31T01:14:15;98983.00;;;1.51;100.00
8069;BME280;4077;43.702;24.896;2023-01-31T01:16:41;98985.06;;;1.61;100.00
8069;BME280;4077;43.702;24.896;2023-01-31T01:19:11;98963.75;;;1.58;100.00
8069;BME280;4077;43.702;24.896;2023-01-31T01:21:37;98940.34;;;1.44;100.00
8069;BME280;4077;43.702;24.896;2023-01-31T01:24:05;98970.91;;;1.68;100.00
8069;BME280;4077;43.702;24.896;2023-01-31T01:26:33;98978.50;;;1.67;100.00
8069;BME280;4077;43.702;24.896;2023-01-31T01:29:00;98966.81;;;1.72;100.00
8069;BME280;4077;43.702;24.896;2023-01-31T01:31:26;98973.56;;;1.71;100.00
8069;BME280;4077;43.702;24.896;2023-01-31T01:34:05;98954.09;;;1.72;100.00
8069;BME280;4077;43.702;24.896;2023-01-31T01:36:35;98941.16;;;1.66;100.00
8069;BME280;4077;43.702;24.896;2023-01-31T01:39:01;98951.81;;;1.57;100.00
8069;BME280;4077;43.702;24.896;2023-01-31T01:41:27;98957.66;;;1.54;100.00
8069;BME280;4077;43.702;24.896;2023-01-31T01:43:56;98935.53;;;1.52;100.00
8069;BME280;4077;43.702;24.896;2023-01-31T01:48:54;98949.63;;;1.66;100.00
8069;BME280;4077;43.702;24.896;2023-01-31T01:51:20;98938.59;;;1.66;100.00
8069;BME280;4077;43.702;24.896;2023-01-31T01:53:50;98941.59;;;1.55;100.00
8069;BME280;4077;43.702;24.896;2023-01-31T01:56:20;98952.81;;;1.83;100.00
8069;BME280;4077;43.702;24.896;2023-01-31T01:59:05;98894.66;;;1.47;100.00
8069;BME280;4077;43.702;24.896;2023-01-31T02:01:34;98917.66;;;1.50;100.00
8069;BME280;4077;43.702;24.896;2023-01-31T02:04:02;98948.50;;;1.58;100.00
8069;BME280;4077;43.702;24.896;2023-01-31T02:06:29;98928.63;;;1.49;100.00
8069;BME280;4077;43.702;24.896;2023-01-31T02:08:54;98935.63;;;1.55;100.00
8069;BME280;4077;43.702;24.896;2023-01-31T02:11:29;98876.75;;;1.22;100.00
8069;BME280;4077;43.702;24.896;2023-01-31T02:14:02;98951.38;;;1.67;100.00
8069;BME280;4077;43.702;24.896;2023-01-31T02:16:28;98958.00;;;1.63;100.00
8069;BME280;4077;43.702;24.896;2023-01-31T02:18:55;98956.28;;;1.62;100.00
8069;BME280;4077;43.702;24.896;2023-01-31T02:34:53;98961.75;;;1.51;100.00
8069;BME280;4077;43.702;24.896;2023-01-31T02:37:31;98965.06;;;1.48;100.00
8069;BME280;4077;43.702;24.896;2023-01-31T02:40:23;98968.94;;;1.83;100.00
8069;BME280;4077;43.702;24.896;2023-01-31T02:43:02;98985.53;;;1.74;100.00
8069;BME280;4077;43.702;24.896;2023-01-31T02:48:36;98972.44;;;1.42;100.00
8069;BME280;4077;43.702;24.896;2023-01-31T02:51:13;98965.53;;;1.38;100.00
8069;BME280;4077;43.702;24.896;2023-01-31T02:56:25;98994.84;;;1.73;100.00
8069;BME280;4077;43.702;24.896;2023-01-31T02:58:57;98990.06;;;1.58;100.00
8069;BME280;4077;43.702;24.896;2023-01-31T03:01:27;98974.16;;;1.43;100.00
8069;BME280;4077;43.702;24.896;2023-01-31T03:04:01;98972.19;;;1.36;100.00
8069;BME280;4077;43.702;24.896;2023-01-31T03:08:58;98966.88;;;1.30;100.00
8069;BME280;4077;43.702;24.896;2023-01-31T03:12:02;98994.75;;;1.49;100.00
8069;BME280;4077;43.702;24.896;2023-01-31T03:19:49;99009.97;;;1.48;100.00
8069;BME280;4077;43.702;24.896;2023-01-31T03:22:25;99011.88;;;1.53;100.00
8069;BME280;4077;43.702;24.896;2023-01-31T03:24:52;98980.53;;;1.32;100.00
8069;BME280;4077;43.702;24.896;2023-01-31T03:27:19;98991.56;;;1.32;100.00
8069;BME280;4077;43.702;24.896;2023-01-31T03:29:46;99002.66;;;1.34;100.00
8069;BME280;4077;43.702;24.896;2023-01-31T03:32:26;99010.25;;;1.55;100.00
8069;BME280;4077;43.702;24.896;2023-01-31T03:34:53;98998.44;;;1.35;100.00
8069;BME280;4077;43.702;24.896;2023-01-31T03:37:25;99016.72;;;1.47;100.00
8069;BME280;4077;43.702;24.896;2023-01-31T03:45:27;99021.56;;;1.41;100.00
8069;BME280;4077;43.702;24.896;2023-01-31T03:47:55;99015.03;;;1.48;100.00
8069;BME280;4077;43.702;24.896;2023-01-31T03:50:38;99019.84;;;1.40;100.00
8069;BME280;4077;43.702;24.896;2023-01-31T03:53:12;99030.91;;;1.42;100.00
8069;BME280;4077;43.702;24.896;2023-01-31T03:55:43;99026.91;;;1.47;100.00
8069;BME280;4077;43.702;24.896;2023-01-31T03:58:12;99028.53;;;1.24;100.00
8069;BME280;4077;43.702;24.896;2023-01-31T04:00:41;99022.31;;;1.39;100.00
8069;BME280;4077;43.702;24.896;2023-01-31T04:03:26;99028.38;;;1.42;100.00
8069;BME280;4077;43.702;24.896;2023-01-31T04:05:52;99047.00;;;1.41;100.00
8069;BME280;4077;43.702;24.896;2023-01-31T04:08:18;99029.38;;;1.46;100.00
8069;BME280;4077;43.702;24.896;2023-01-31T04:10:45;99023.03;;;1.36;100.00
8069;BME280;4077;43.702;24.896;2023-01-31T04:13:10;99045.44;;;1.45;100.00
8069;BME280;4077;43.702;24.896;2023-01-31T04:15:35;99020.94;;;1.26;100.00
8069;BME280;4077;43.702;24.896;2023-01-31T04:18:01;99033.09;;;1.33;100.00
8069;BME280;4077;43.702;24.896;2023-01-31T04:20:26;99014.69;;;1.39;100.00
8069;BME280;4077;43.702;24.896;2023-01-31T04:22:52;99019.47;;;1.31;100.00
8069;BME280;4077;43.702;24.896;2023-01-31T04:25:17;99038.50;;;1.41;100.00
8069;BME280;4077;43.702;24.896;2023-01-31T04:27:43;99053.09;;;1.24;100.00
8069;BME280;4077;43.702;24.896;2023-01-31T04:30:09;99048.22;;;1.30;100.00
8069;BME280;4077;43.702;24.896;2023-01-31T04:32:34;99048.72;;;1.42;100.00
8069;BME280;4077;43.702;24.896;2023-01-31T04:35:00;99041.78;;;1.38;100.00
8069;BME280;4077;43.702;24.896;2023-01-31T04:37:25;99030.50;;;1.11;100.00
8069;BME280;4077;43.702;24.896;2023-01-31T04:39:51;99052.94;;;1.21;100.00
8069;BME280;4077;43.702;24.896;2023-01-31T04:42:16;99055.84;;;1.30;100.00
8069;BME280;4077;43.702;24.896;2023-01-31T04:44:42;98995.38;;;0.81;100.00
8069;BME280;4077;43.702;24.896;2023-01-31T04:47:07;99054.50;;;1.17;100.00
8069;BME280;4077;43.702;24.896;2023-01-31T04:49:33;99036.31;;;1.08;100.00
8069;BME280;4077;43.702;24.896;2023-01-31T04:51:58;99049.97;;;1.10;100.00
8069;BME280;4077;43.702;24.896;2023-01-31T04:54:23;99048.44;;;0.94;100.00
8069;BME280;4077;43.702;24.896;2023-01-31T04:56:49;99051.50;;;1.06;100.00
8069;BME280;4077;43.702;24.896;2023-01-31T04:59:14;99051.38;;;1.03;100.00
8069;BME280;4077;43.702;24.896;2023-01-31T05:01:40;99027.59;;;0.82;100.00
8069;BME280;4077;43.702;24.896;2023-01-31T05:04:06;99037.47;;;0.95;100.00
8069;BME280;4077;43.702;24.896;2023-01-31T05:06:32;99038.81;;;0.87;100.00
8069;BME280;4077;43.702;24.896;2023-01-31T05:08:57;99040.41;;;1.04;100.00
8069;BME280;4077;43.702;24.896;2023-01-31T05:11:26;99036.16;;;0.84;100.00
8069;BME280;4077;43.702;24.896;2023-01-31T05:13:51;99052.69;;;1.15;100.00
8069;BME280;4077;43.702;24.896;2023-01-31T05:16:17;99049.41;;;0.96;100.00
8069;BME280;4077;43.702;24.896;2023-01-31T05:18:42;99030.47;;;0.90;100.00
8069;BME280;4077;43.702;24.896;2023-01-31T05:21:09;99036.44;;;0.90;100.00
8069;BME280;4077;43.702;24.896;2023-01-31T05:23:34;99031.03;;;0.82;100.00
8069;BME280;4077;43.702;24.896;2023-01-31T05:26:00;99027.34;;;0.76;100.00
8069;BME280;4077;43.702;24.896;2023-01-31T05:28:26;99032.56;;;0.79;100.00
8069;BME280;4077;43.702;24.896;2023-01-31T05:30:52;99030.81;;;0.78;100.00
8069;BME280;4077;43.702;24.896;2023-01-31T05:33:18;99044.63;;;1.04;100.00
8069;BME280;4077;43.702;24.896;2023-01-31T05:35:47;98990.41;;;0.63;100.00
8069;BME280;4077;43.702;24.896;2023-01-31T05:38:13;99062.72;;;1.12;100.00
8069;BME280;4077;43.702;24.896;2023-01-31T05:40:38;99032.53;;;0.98;100.00
8069;BME280;4077;43.702;24.896;2023-01-31T05:43:04;99068.19;;;1.21;100.00
8069;BME280;4077;43.702;24.896;2023-01-31T05:45:29;99065.69;;;1.01;100.00
8069;BME280;4077;43.702;24.896;2023-01-31T05:47:55;99078.44;;;1.03;100.00
8069;BME280;4077;43.702;24.896;2023-01-31T05:50:20;99073.13;;;0.97;100.00
8069;BME280;4077;43.702;24.896;2023-01-31T05:52:50;99084.66;;;1.09;100.00
8069;BME280;4077;43.702;24.896;2023-01-31T05:55:17;99074.09;;;1.00;100.00
8069;BME280;4077;43.702;24.896;2023-01-31T05:57:42;99088.97;;;1.11;100.00
8069;BME280;4077;43.702;24.896;2023-01-31T06:00:08;99092.38;;;1.11;100.00
8069;BME280;4077;43.702;24.896;2023-01-31T06:02:34;99063.94;;;1.00;100.00
8069;BME280;4077;43.702;24.896;2023-01-31T06:04:59;99078.25;;;0.98;100.00
8069;BME280;4077;43.702;24.896;2023-01-31T06:07:25;99096.81;;;1.17;100.00
8069;BME280;4077;43.702;24.896;2023-01-31T06:09:50;99069.28;;;1.06;100.00
8069;BME280;4077;43.702;24.896;2023-01-31T06:12:16;99072.75;;;1.08;100.00
8069;BME280;4077;43.702;24.896;2023-01-31T06:14:41;99080.09;;;1.22;100.00
8069;BME280;4077;43.702;24.896;2023-01-31T06:17:07;99091.63;;;1.34;100.00
8069;BME280;4077;43.702;24.896;2023-01-31T06:19:32;99077.13;;;1.32;100.00
8069;BME280;4077;43.702;24.896;2023-01-31T06:21:58;99112.03;;;1.57;100.00
8069;BME280;4077;43.702;24.896;2023-01-31T06:24:23;99112.19;;;1.81;100.00
8069;BME280;4077;43.702;24.896;2023-01-31T06:26:49;99115.66;;;1.83;100.00
8069;BME280;4077;43.702;24.896;2023-01-31T06:29:14;99109.94;;;1.68;100.00
8069;BME280;4077;43.702;24.896;2023-01-31T06:31:43;99084.22;;;1.39;100.00
8069;BME280;4077;43.702;24.896;2023-01-31T06:34:09;99103.44;;;1.53;100.00
8069;BME280;4077;43.702;24.896;2023-01-31T06:36:35;99111.72;;;1.49;100.00
8069;BME280;4077;43.702;24.896;2023-01-31T06:39:00;99099.22;;;1.33;100.00
8069;BME280;4077;43.702;24.896;2023-01-31T06:41:28;99103.19;;;1.47;100.00
8069;BME280;4077;43.702;24.896;2023-01-31T06:43:54;99123.97;;;1.58;100.00
8069;BME280;4077;43.702;24.896;2023-01-31T06:46:19;99127.50;;;1.41;100.00
8069;BME280;4077;43.702;24.896;2023-01-31T06:48:45;99125.88;;;1.43;100.00
8069;BME280;4077;43.702;24.896;2023-01-31T06:51:12;99112.22;;;1.41;100.00
8069;BME280;4077;43.702;24.896;2023-01-31T06:53:38;99125.28;;;1.29;100.00
8069;BME280;4077;43.702;24.896;2023-01-31T06:56:04;99114.09;;;1.24;100.00
8069;BME280;4077;43.702;24.896;2023-01-31T06:58:29;99137.16;;;1.49;100.00
8069;BME280;4077;43.702;24.896;2023-01-31T07:00:55;99133.97;;;1.53;100.00
8069;BME280;4077;43.702;24.896;2023-01-31T07:03:20;99145.59;;;1.48;100.00
8069;BME280;4077;43.702;24.896;2023-01-31T07:05:46;99139.00;;;1.32;100.00
8069;BME280;4077;43.702;24.896;2023-01-31T07:08:13;99143.75;;;1.44;100.00
8069;BME280;4077;43.702;24.896;2023-01-31T07:10:38;99153.94;;;1.44;100.00
8069;BME280;4077;43.702;24.896;2023-01-31T07:13:04;99147.09;;;1.64;100.00
8069;BME280;4077;43.702;24.896;2023-01-31T07:15:29;99110.13;;;1.93;100.00
8069;BME280;4077;43.702;24.896;2023-01-31T07:17:58;99172.16;;;3.56;100.00
8069;BME280;4077;43.702;24.896;2023-01-31T07:20:24;99184.38;;;5.02;100.00
8069;BME280;4077;43.702;24.896;2023-01-31T07:22:54;99178.59;;;5.72;91.44
8069;BME280;4077;43.702;24.896;2023-01-31T07:25:20;99190.03;;;5.85;87.17
8069;BME280;4077;43.702;24.896;2023-01-31T07:27:45;99187.53;;;5.55;88.24
8069;BME280;4077;43.702;24.896;2023-01-31T07:30:11;99207.50;;;6.34;85.95
8069;BME280;4077;43.702;24.896;2023-01-31T07:32:36;99209.28;;;6.38;79.90
8069;BME280;4077;43.702;24.896;2023-01-31T07:35:02;99209.81;;;6.60;78.33
8069;BME280;4077;43.702;24.896;2023-01-31T07:37:27;99224.00;;;7.22;80.44
8069;BME280;4077;43.702;24.896;2023-01-31T07:39:53;99218.31;;;8.34;73.79
8069;BME280;4077;43.702;24.896;2023-01-31T07:42:18;99239.53;;;8.73;70.23
8069;BME280;4077;43.702;24.896;2023-01-31T07:44:44;99239.03;;;8.41;64.79
8069;BME280;4077;43.702;24.896;2023-01-31T07:47:09;99203.72;;;8.89;65.65
8069;BME280;4077;43.702;24.896;2023-01-31T07:49:35;99257.09;;;9.70;62.52
8069;BME280;4077;43.702;24.896;2023-01-31T07:52:00;99204.25;;;9.31;61.84
8069;BME280;4077;43.702;24.896;2023-01-31T07:54:26;99241.00;;;8.08;63.88
8069;BME280;4077;43.702;24.896;2023-01-31T07:56:51;99243.09;;;7.82;66.42
8069;BME280;4077;43.702;24.896;2023-01-31T07:59:17;99234.56;;;7.83;67.77
8069;BME280;4077;43.702;24.896;2023-01-31T08:01:42;99232.56;;;7.24;69.22
8069;BME280;4077;43.702;24.896;2023-01-31T08:04:26;99206.31;;;6.57;71.69
8069;BME280;4077;43.702;24.896;2023-01-31T08:06:53;99227.25;;;6.03;81.53
8069;BME280;4077;43.702;24.896;2023-01-31T08:09:20;99221.16;;;6.33;87.60
8069;BME280;4077;43.702;24.896;2023-01-31T08:11:45;99228.59;;;6.24;85.50
8069;BME280;4077;43.702;24.896;2023-01-31T08:14:11;99201.38;;;6.27;87.33
8069;BME280;4077;43.702;24.896;2023-01-31T08:16:37;99227.78;;;6.25;87.25
8069;BME280;4077;43.702;24.896;2023-01-31T08:19:03;99221.53;;;6.14;90.07
8069;BME280;4077;43.702;24.896;2023-01-31T08:21:28;99218.66;;;6.01;90.62
8069;BME280;4077;43.702;24.896;2023-01-31T08:23:54;99198.53;;;5.51;91.83
8069;BME280;4077;43.702;24.896;2023-01-31T08:26:20;99223.50;;;5.59;98.79
8069;BME280;4077;43.702;24.896;2023-01-31T08:28:48;99216.78;;;5.63;100.00
8069;BME280;4077;43.702;24.896;2023-01-31T08:31:20;99220.56;;;5.77;100.00
8069;BME280;4077;43.702;24.896;2023-01-31T08:33:46;99224.91;;;6.11;97.41
8069;BME280;4077;43.702;24.896;2023-01-31T08:36:20;99234.72;;;6.29;94.95
8069;BME280;4077;43.702;24.896;2023-01-31T08:38:46;99211.13;;;6.08;94.83
8069;BME280;4077;43.702;24.896;2023-01-31T08:41:13;99233.28;;;6.40;94.34
8069;BME280;4077;43.702;24.896;2023-01-31T08:43:38;99234.28;;;6.47;93.42
8069;BME280;4077;43.702;24.896;2023-01-31T08:46:04;99227.91;;;6.31;91.89
8069;BME280;4077;43.702;24.896;2023-01-31T08:48:34;99227.16;;;6.34;91.20
8069;BME280;4077;43.702;24.896;2023-01-31T08:51:01;99239.63;;;6.56;92.73
8069;BME280;4077;43.702;24.896;2023-01-31T08:53:27;99235.00;;;6.41;93.24
8069;BME280;4077;43.702;24.896;2023-01-31T08:55:57;99196.66;;;5.76;96.90
8069;BME280;4077;43.702;24.896;2023-01-31T08:58:23;99224.00;;;5.78;98.47
8069;BME280;4077;43.702;24.896;2023-01-31T09:00:48;99211.69;;;5.64;100.00
8069;BME280;4077;43.702;24.896;2023-01-31T09:03:14;99229.50;;;5.60;100.00
8069;BME280;4077;43.702;24.896;2023-01-31T09:05:43;99225.41;;;5.98;100.00
8069;BME280;4077;43.702;24.896;2023-01-31T09:08:09;99241.56;;;6.30;100.00
8069;BME280;4077;43.702;24.896;2023-01-31T09:10:35;99226.66;;;6.14;98.76
8069;BME280;4077;43.702;24.896;2023-01-31T09:13:00;99222.63;;;5.90;100.00
8069;BME280;4077;43.702;24.896;2023-01-31T09:15:26;99247.06;;;6.11;100.00
8069;BME280;4077;43.702;24.896;2023-01-31T09:17:51;99245.13;;;6.35;100.00
8069;BME280;4077;43.702;24.896;2023-01-31T09:20:17;99246.78;;;6.69;99.04
8069;BME280;4077;43.702;24.896;2023-01-31T09:22:43;99246.50;;;6.58;96.47
8069;BME280;4077;43.702;24.896;2023-01-31T09:25:09;99228.22;;;6.43;95.98
8069;BME280;4077;43.702;24.896;2023-01-31T09:27:35;99240.94;;;6.39;100.00
8069;BME280;4077;43.702;24.896;2023-01-31T09:30:04;99242.31;;;5.91;100.00
8069;BME280;4077;43.702;24.896;2023-01-31T09:32:30;99236.88;;;6.12;99.36
8069;BME280;4077;43.702;24.896;2023-01-31T09:34:57;99241.03;;;6.09;98.91
8069;BME280;4077;43.702;24.896;2023-01-31T09:37:22;99240.31;;;6.13;97.30
8069;BME280;4077;43.702;24.896;2023-01-31T09:39:48;99246.69;;;6.30;97.21
8069;BME280;4077;43.702;24.896;2023-01-31T09:42:36;99252.78;;;6.70;97.96
8069;BME280;4077;43.702;24.896;2023-01-31T09:45:18;99259.38;;;7.37;92.61
8069;BME280;4077;43.702;24.896;2023-01-31T09:47:51;99261.53;;;7.59;88.01
8069;BME280;4077;43.702;24.896;2023-01-31T09:50:35;99262.91;;;7.42;82.99
8069;BME280;4077;43.702;24.896;2023-01-31T09:53:04;99246.56;;;7.40;86.16
8069;BME280;4077;43.702;24.896;2023-01-31T09:56:04;99257.09;;;7.52;86.02
8069;BME280;4077;43.702;24.896;2023-01-31T09:58:45;99258.81;;;7.53;85.59
8069;BME280;4077;43.702;24.896;2023-01-31T10:06:59;99227.25;;;6.76;88.63
8069;BME280;4077;43.702;24.896;2023-01-31T10:09:37;99239.09;;;6.71;87.38
8069;BME280;4077;43.702;24.896;2023-01-31T10:12:13;99226.63;;;6.86;91.25
8069;BME280;4077;43.702;24.896;2023-01-31T10:14:44;99228.56;;;6.96;89.38
8069;BME280;4077;43.702;24.896;2023-01-31T10:20:06;99229.69;;;6.70;88.52
8069;BME280;4077;43.702;24.896;2023-01-31T10:22:43;99226.84;;;6.57;87.48
8069;BME280;4077;43.702;24.896;2023-01-31T10:25:27;99229.00;;;6.77;87.61
8069;BME280;4077;43.702;24.896;2023-01-31T10:28:00;99223.44;;;6.58;85.68
8069;BME280;4077;43.702;24.896;2023-01-31T10:33:47;99231.41;;;7.08;86.39
8069;BME280;4077;43.702;24.896;2023-01-31T10:36:35;99233.75;;;7.40;83.68
8069;BME280;4077;43.702;24.896;2023-01-31T10:39:30;99234.34;;;7.71;79.97
8069;BME280;4077;43.702;24.896;2023-01-31T10:44:55;99227.78;;;7.88;77.64
8069;BME280;4077;43.702;24.896;2023-01-31T10:47:53;99228.75;;;7.93;76.39
8069;BME280;4077;43.702;24.896;2023-01-31T10:50:35;99227.88;;;7.91;74.56
8069;BME280;4077;43.702;24.896;2023-01-31T10:58:15;99223.38;;;7.79;73.59
8069;BME280;4077;43.702;24.896;2023-01-31T11:00:41;99218.25;;;7.81;73.19
8069;BME280;4077;43.702;24.896;2023-01-31T11:03:10;99213.59;;;7.61;72.98
8069;BME280;4077;43.702;24.896;2023-01-31T11:05:43;99207.19;;;7.85;75.18
8069;BME280;4077;43.702;24.896;2023-01-31T11:10:55;99216.28;;;7.66;74.39
8069;BME280;4077;43.702;24.896;2023-01-31T11:13:21;99220.13;;;7.44;75.60
8069;BME280;4077;43.702;24.896;2023-01-31T11:15:49;99195.28;;;7.42;75.61
8069;BME280;4077;43.702;24.896;2023-01-31T11:18:30;99219.97;;;7.35;73.02
8069;BME280;4077;43.702;24.896;2023-01-31T11:20:58;99219.84;;;7.29;72.41
8069;BME280;4077;43.702;24.896;2023-01-31T11:23:28;99214.59;;;7.23;71.33
8069;BME280;4077;43.702;24.896;2023-01-31T11:25:55;99201.38;;;7.06;71.25
8069;BME280;4077;43.702;24.896;2023-01-31T11:28:26;99197.59;;;6.87;72.12
8069;BME280;4077;43.702;24.896;2023-01-31T11:30:54;99209.34;;;7.18;71.10
8069;BME280;4077;43.702;24.896;2023-01-31T11:33:39;99208.59;;;7.24;70.41
8069;BME280;4077;43.702;24.896;2023-01-31T11:36:10;99214.16;;;7.45;72.82
8069;BME280;4077;43.702;24.896;2023-01-31T11:38:36;99203.16;;;7.52;72.29
8069;BME280;4077;43.702;24.896;2023-01-31T11:41:32;99218.66;;;7.55;72.24
8069;BME280;4077;43.702;24.896;2023-01-31T11:44:11;99204.38;;;7.26;70.81
8069;BME280;4077;43.702;24.896;2023-01-31T11:49:12;99193.81;;;7.12;70.88
8069;BME280;4077;43.702;24.896;2023-01-31T11:51:41;99199.81;;;7.12;70.95
8069;BME280;4077;43.702;24.896;2023-01-31T11:54:12;99200.94;;;7.27;71.72
8069;BME280;4077;43.702;24.896;2023-01-31T11:56:41;99200.84;;;7.21;71.01
8069;BME280;4077;43.702;24.896;2023-01-31T11:59:09;99217.19;;;7.26;70.36
8069;BME280;4077;43.702;24.896;2023-01-31T12:01:45;99215.41;;;7.22;69.72
8069;BME280;4077;43.702;24.896;2023-01-31T12:04:33;99206.63;;;7.10;68.91
8069;BME280;4077;43.702;24.896;2023-01-31T12:07:19;99210.84;;;7.07;69.54
8069;BME280;4077;43.702;24.896;2023-01-31T12:09:45;99198.88;;;7.07;68.83
8069;BME280;4077;43.702;24.896;2023-01-31T12:12:27;99219.47;;;7.10;70.25
8069;BME280;4077;43.702;24.896;2023-01-31T12:15:01;99216.88;;;7.10;72.31
8069;BME280;4077;43.702;24.896;2023-01-31T12:17:34;99226.44;;;7.18;71.91
8069;BME280;4077;43.702;24.896;2023-01-31T12:25:48;99216.03;;;7.54;71.36
8069;BME280;4077;43.702;24.896;2023-01-31T12:30:56;99230.47;;;7.92;69.21
8069;BME280;4077;43.702;24.896;2023-01-31T12:33:37;99224.91;;;7.70;70.30
8069;BME280;4077;43.702;24.896;2023-01-31T12:36:31;99228.09;;;7.58;68.30
8069;BME280;4077;43.702;24.896;2023-01-31T12:39:13;99219.03;;;7.31;69.20
8069;BME280;4077;43.702;24.896;2023-01-31T12:41:59;99232.03;;;7.40;68.75
8069;BME280;4077;43.702;24.896;2023-01-31T12:44:36;99230.56;;;7.53;69.29
8069;BME280;4077;43.702;24.896;2023-01-31T12:55:42;99236.25;;;7.35;73.19
8069;BME280;4077;43.702;24.896;2023-01-31T13:01:05;99236.06;;;7.72;75.08
8069;BME280;4077;43.702;24.896;2023-01-31T13:06:34;99239.47;;;7.71;72.15
8069;BME280;4077;43.702;24.896;2023-01-31T13:09:11;99237.75;;;7.70;72.86
8069;BME280;4077;43.702;24.896;2023-01-31T13:14:18;99233.06;;;7.49;72.91
8069;BME280;4077;43.702;24.896;2023-01-31T13:16:46;99231.88;;;7.33;71.91
8069;BME280;4077;43.702;24.896;2023-01-31T13:19:26;99241.53;;;7.43;71.77
8069;BME280;4077;43.702;24.896;2023-01-31T13:22:01;99252.50;;;7.36;71.11
8069;BME280;4077;43.702;24.896;2023-01-31T13:24:36;99244.38;;;7.16;73.87
8069;BME280;4077;43.702;24.896;2023-01-31T13:27:28;99249.97;;;7.37;73.88
8069;BME280;4077;43.702;24.896;2023-01-31T13:29:59;99257.28;;;7.19;74.29
8069;BME280;4077;43.702;24.896;2023-01-31T13:32:37;99253.13;;;7.24;75.80
8069;BME280;4077;43.702;24.896;2023-01-31T13:35:12;99259.50;;;7.43;75.21
8069;BME280;4077;43.702;24.896;2023-01-31T13:37:43;99265.88;;;7.62;73.02
8069;BME280;4077;43.702;24.896;2023-01-31T13:40:20;99267.59;;;7.63;72.56
8069;BME280;4077;43.702;24.896;2023-01-31T13:42:48;99272.16;;;7.78;73.59
8069;BME280;4077;43.702;24.896;2023-01-31T13:45:29;99255.06;;;7.80;70.88
8069;BME280;4077;43.702;24.896;2023-01-31T13:48:02;99274.41;;;8.06;67.87
8069;BME280;4077;43.702;24.896;2023-01-31T13:50:43;99263.88;;;7.94;65.92
8069;BME280;4077;43.702;24.896;2023-01-31T13:53:15;99265.63;;;7.95;65.22
8069;BME280;4077;43.702;24.896;2023-01-31T13:55:45;99272.22;;;7.81;65.18
8069;BME280;4077;43.702;24.896;2023-01-31T13:58:28;99271.53;;;7.89;66.47
8069;BME280;4077;43.702;24.896;2023-01-31T14:01:03;99272.31;;;7.87;66.66
8069;BME280;4077;43.702;24.896;2023-01-31T14:03:29;99273.16;;;7.84;66.53
8069;BME280;4077;43.702;24.896;2023-01-31T14:05:57;99271.59;;;7.94;66.44
8069;BME280;4077;43.702;24.896;2023-01-31T14:08:56;99264.81;;;7.96;65.60
8069;BME280;4077;43.702;24.896;2023-01-31T14:16:39;99277.84;;;8.08;67.06
8069;BME280;4077;43.702;24.896;2023-01-31T14:22:13;99277.94;;;8.13;68.05
8069;BME280;4077;43.702;24.896;2023-01-31T14:30:41;99284.41;;;7.91;68.75
8069;BME280;4077;43.702;24.896;2023-01-31T14:44:15;99294.13;;;8.09;72.12
8069;BME280;4077;43.702;24.896;2023-01-31T14:47:07;99275.97;;;7.98;72.53
8069;BME280;4077;43.702;24.896;2023-01-31T14:52:56;99296.56;;;8.01;73.55
8069;BME280;4077;43.702;24.896;2023-01-31T14:55:55;99310.34;;;8.03;74.52
8069;BME280;4077;43.702;24.896;2023-01-31T14:58:28;99317.94;;;7.99;75.76
8069;BME280;4077;43.702;24.896;2023-01-31T15:00:58;99315.97;;;7.84;76.25
8069;BME280;4077;43.702;24.896;2023-01-31T15:03:25;99331.22;;;7.76;77.10
8069;BME280;4077;43.702;24.896;2023-01-31T15:05:55;99320.69;;;7.64;84.27
8069;BME280;4077;43.702;24.896;2023-01-31T15:08:34;99307.56;;;7.50;87.15
8069;BME280;4077;43.702;24.896;2023-01-31T15:11:02;99315.53;;;7.22;95.21
8069;BME280;4077;43.702;24.896;2023-01-31T15:16:19;99318.81;;;7.55;88.87
8069;BME280;4077;43.702;24.896;2023-01-31T15:19:00;99326.53;;;7.55;87.51
8069;BME280;4077;43.702;24.896;2023-01-31T15:21:32;99329.91;;;7.54;90.34
8069;BME280;4077;43.702;24.896;2023-01-31T15:24:01;99324.59;;;7.45;92.29
8069;BME280;4077;43.702;24.896;2023-01-31T15:26:32;99333.69;;;7.31;93.48